createdAt,value
2022-12-08T00:03:44.740Z,-11.52
2022-12-08T00:09:05.837Z,-11.44
2022-12-08T00:14:08.333Z,-11.56
2022-12-08T00:19:10.764Z,-11.57
2022-12-08T00:24:13.452Z,-11.54
2022-12-08T00:29:17.519Z,-11.56
2022-12-08T00:34:20.640Z,-11.59
2022-12-08T00:39:23.191Z,-11.48
2022-12-08T00:44:26.350Z,-11.43
2022-12-08T00:49:28.892Z,-11.49
2022-12-08T00:54:31.530Z,-11.49
2022-12-08T00:59:34.129Z,-11.53
2022-12-08T01:04:36.770Z,-11.57
2022-12-08T01:09:39.082Z,-11.48
2022-12-08T01:14:41.736Z,-11.42
2022-12-08T01:19:46.453Z,-11.43
2022-12-08T01:24:48.910Z,-11.42
2022-12-08T01:29:51.897Z,-11.36
2022-12-08T01:34:54.347Z,-11.33
2022-12-08T01:39:56.863Z,-11.16
2022-12-08T01:45:03.099Z,-11.29
2022-12-08T01:50:09.078Z,-11.33
2022-12-08T01:55:20.919Z,-11.36
2022-12-08T02:00:24.247Z,-11.12
2022-12-08T02:05:33.588Z,-11.13
2022-12-08T02:10:40.039Z,-11.08
2022-12-08T02:16:02.286Z,-10.99
2022-12-08T02:21:14.297Z,-11.01
2022-12-08T02:26:44.502Z,-11.06
2022-12-08T02:32:22.094Z,-10.80
2022-12-08T02:37:32.375Z,-10.78
2022-12-08T02:43:02.610Z,-10.79
2022-12-08T02:48:06.136Z,-10.62
2022-12-08T02:58:36.480Z,-10.64
2022-12-08T03:04:11.138Z,-10.51
2022-12-08T03:09:40.187Z,-10.43
2022-12-08T03:14:47.762Z,-10.26
2022-12-08T03:19:50.526Z,-10.54
2022-12-08T03:24:53.946Z,-10.40
2022-12-08T03:29:58.895Z,-10.36
2022-12-08T03:35:04.666Z,-10.34
2022-12-08T03:40:09.603Z,-10.32
2022-12-08T03:45:12.439Z,-10.27
2022-12-08T03:50:14.934Z,-10.24
2022-12-08T03:55:17.305Z,-10.29
2022-12-08T04:00:19.936Z,-10.29
2022-12-08T04:05:22.465Z,-10.27
2022-12-08T04:10:24.780Z,-10.29
2022-12-08T04:15:27.215Z,-10.13
2022-12-08T04:20:29.507Z,-10.06
2022-12-08T04:25:32.059Z,-10.06
2022-12-08T04:30:34.447Z,-9.90
2022-12-08T04:35:37.203Z,-9.77
2022-12-08T04:40:39.978Z,-9.65
2022-12-08T04:45:43.123Z,-9.65
2022-12-08T04:50:46.297Z,-9.57
2022-12-08T04:55:49.950Z,-9.39
2022-12-08T05:00:52.547Z,-9.39
2022-12-08T05:05:59.556Z,-9.35
2022-12-08T05:11:06.687Z,-9.19
2022-12-08T05:16:12.564Z,-9.05
2022-12-08T05:21:15.258Z,-9.00
2022-12-08T05:26:17.841Z,-8.94
2022-12-08T05:31:20.629Z,-8.69
2022-12-08T05:36:23.182Z,-8.59
2022-12-08T05:41:25.849Z,-8.69
2022-12-08T05:46:28.853Z,-8.66
2022-12-08T05:51:31.900Z,-8.39
2022-12-08T05:56:37.604Z,-8.33
2022-12-08T06:01:40.201Z,-8.03
2022-12-08T06:06:42.677Z,-7.87
2022-12-08T06:11:46.781Z,-7.78
2022-12-08T06:16:49.264Z,-7.62
2022-12-08T06:21:51.744Z,-7.43
2022-12-08T06:26:54.269Z,-7.30
2022-12-08T06:31:57.102Z,-7.34
2022-12-08T06:36:59.823Z,-7.34
2022-12-08T06:42:20.788Z,-7.33
2022-12-08T06:47:26.209Z,-7.27
2022-12-08T06:52:28.958Z,-7.09
2022-12-08T06:57:31.455Z,-7.24
2022-12-08T07:02:34.030Z,-7.08
2022-12-08T07:07:36.636Z,-6.89
2022-12-08T07:12:39.172Z,-6.78
2022-12-08T07:17:41.707Z,-6.70
2022-12-08T07:22:54.311Z,-7.02
2022-12-08T07:27:56.865Z,-6.74
2022-12-08T07:32:59.350Z,-6.66
2022-12-08T07:38:01.824Z,-6.71
2022-12-08T07:43:04.281Z,-6.87
2022-12-08T07:48:07.334Z,-6.79
2022-12-08T07:53:09.850Z,-6.78
2022-12-08T07:58:12.547Z,-6.76
2022-12-08T08:03:15.210Z,-6.81
2022-12-08T08:08:18.540Z,-6.91
2022-12-08T08:13:21.165Z,-6.76
2022-12-08T08:18:23.673Z,-6.81
2022-12-08T08:23:26.259Z,-6.62
2022-12-08T08:28:29.364Z,-6.59
2022-12-08T08:33:32.449Z,-6.43
2022-12-08T08:38:36.542Z,-6.44
2022-12-08T08:43:39.552Z,-6.22
2022-12-08T08:48:42.692Z,-5.98
2022-12-08T08:53:45.210Z,-6.01
2022-12-08T08:58:49.660Z,-5.85
2022-12-08T09:03:53.263Z,-5.78
2022-12-08T09:08:55.816Z,-5.53
2022-12-08T09:13:58.282Z,-5.45
2022-12-08T09:19:00.805Z,-5.16
2022-12-08T09:24:03.387Z,-4.92
2022-12-08T09:29:05.914Z,-4.93
2022-12-08T09:34:08.494Z,-4.73
2022-12-08T09:39:10.964Z,-4.66
2022-12-08T09:44:39.607Z,-4.63
2022-12-08T09:49:55.465Z,-4.51
2022-12-08T09:55:01.779Z,-4.42
2022-12-08T10:00:07.101Z,-4.41
2022-12-08T10:05:14.740Z,-4.16
2022-12-08T10:10:26.074Z,-3.91
2022-12-08T10:15:59.489Z,-3.79
2022-12-08T10:21:19.185Z,-3.94
2022-12-08T10:26:23.052Z,-3.82
2022-12-08T10:31:25.868Z,-3.99
2022-12-08T10:36:58.678Z,-3.86
2022-12-08T10:42:16.004Z,-3.60
2022-12-08T10:47:22.188Z,-3.65
2022-12-08T10:52:25.426Z,-3.60
2022-12-08T10:57:27.999Z,-3.58
2022-12-08T11:02:30.603Z,-3.50
2022-12-08T11:07:53.173Z,-3.41
2022-12-08T11:12:58.275Z,-3.50
2022-12-08T11:18:06.956Z,-3.39
2022-12-08T11:23:24.935Z,-3.29
2022-12-08T11:28:29.045Z,-3.36
2022-12-08T11:33:31.948Z,-3.32
2022-12-08T11:38:41.206Z,-3.41
2022-12-08T11:44:17.519Z,-3.15
2022-12-08T11:49:20.999Z,-3.27
2022-12-08T11:54:39.049Z,-3.23
2022-12-08T11:59:46.507Z,-3.46
2022-12-08T12:04:58.461Z,-3.05
2022-12-08T12:10:01.064Z,-3.27
2022-12-08T12:15:18.757Z,-3.40
2022-12-08T12:20:39.112Z,-3.74
2022-12-08T12:25:48.625Z,-3.61
2022-12-08T12:31:01.378Z,-3.78
2022-12-08T12:36:07.307Z,-3.87
2022-12-08T12:41:12.299Z,-3.83
2022-12-08T12:46:41.339Z,-3.73
2022-12-08T12:51:48.093Z,-3.63
2022-12-08T12:56:54.736Z,-3.72
2022-12-08T13:02:15.800Z,-3.71
2022-12-08T13:07:24.050Z,-4.03
2022-12-08T13:12:28.505Z,-4.15
2022-12-08T13:17:34.092Z,-4.23
2022-12-08T13:23:12.340Z,-4.27
2022-12-08T13:28:31.491Z,-4.24
2022-12-08T13:33:41.582Z,-4.31
2022-12-08T13:38:47.607Z,-4.29
2022-12-08T13:56:05.465Z,-4.43
2022-12-08T14:00:18.413Z,-4.43
2022-12-08T14:05:35.245Z,-4.51
2022-12-08T14:10:53.503Z,-4.49
2022-12-08T14:15:56.096Z,-4.51
2022-12-08T14:21:20.647Z,-4.38
2022-12-08T14:26:23.564Z,-4.44
2022-12-08T14:31:27.663Z,-4.38
2022-12-08T14:36:30.506Z,-4.44
2022-12-08T14:41:33.673Z,-4.49
2022-12-08T14:47:09.268Z,-4.59
2022-12-08T14:52:12.743Z,-4.60
2022-12-08T14:57:15.909Z,-4.63
2022-12-08T15:02:27.393Z,-4.61
2022-12-08T15:07:35.635Z,-4.57
2022-12-08T15:12:38.231Z,-4.59
2022-12-08T15:17:40.650Z,-4.64
2022-12-08T15:22:43.367Z,-4.68
2022-12-08T15:27:50.419Z,-4.70
2022-12-08T15:33:00.635Z,-4.69
2022-12-08T15:38:03.182Z,-4.81
2022-12-08T15:43:05.691Z,-4.75
2022-12-08T15:48:13.914Z,-4.76
2022-12-08T15:53:16.753Z,-4.82
2022-12-08T16:09:14.717Z,-4.97
2022-12-08T16:15:23.019Z,-4.94
2022-12-08T16:19:39.789Z,-5.02
2022-12-08T16:24:42.290Z,-5.04
2022-12-08T16:29:48.489Z,-5.03
2022-12-08T16:34:51.446Z,-4.93
2022-12-08T16:39:55.940Z,-4.98
2022-12-08T16:44:58.919Z,-5.03
2022-12-08T16:50:03.933Z,-4.98
2022-12-08T16:55:19.558Z,-4.90
2022-12-08T17:00:24.740Z,-4.84
2022-12-08T17:05:27.765Z,-4.76
2022-12-08T17:10:34.635Z,-4.76
2022-12-08T17:15:37.131Z,-4.78
2022-12-08T17:20:40.693Z,-4.44
2022-12-08T17:25:43.173Z,-4.36
2022-12-08T17:30:45.628Z,-4.34
2022-12-08T17:35:53.085Z,-4.46
2022-12-08T17:40:58.624Z,-4.47
2022-12-08T17:46:01.747Z,-4.41
2022-12-08T17:51:09.098Z,-4.39
2022-12-08T17:56:21.491Z,-4.62
2022-12-08T18:01:24.443Z,-4.52
2022-12-08T18:06:31.081Z,-4.82
2022-12-08T18:11:35.766Z,-4.76
2022-12-08T18:16:40.568Z,-4.79
2022-12-08T18:21:43.813Z,-4.68
2022-12-08T18:26:46.604Z,-4.66
2022-12-08T18:31:50.105Z,-4.61
2022-12-08T18:36:53.090Z,-4.54
2022-12-08T18:41:57.839Z,-4.52
2022-12-08T18:47:00.573Z,-4.50
2022-12-08T18:52:03.113Z,-4.48
2022-12-08T18:57:06.375Z,-4.42
2022-12-08T19:02:10.553Z,-4.39
2022-12-08T19:07:13.848Z,-4.48
2022-12-08T19:12:16.481Z,-4.49
2022-12-08T19:17:26.171Z,-4.52
2022-12-08T19:22:28.789Z,-4.39
2022-12-08T19:27:47.884Z,-4.43
2022-12-08T19:32:51.163Z,-4.61
2022-12-08T19:37:55.079Z,-4.55
2022-12-08T19:43:16.451Z,-4.55
2022-12-08T19:48:18.947Z,-4.57
2022-12-08T19:53:21.451Z,-4.48
2022-12-08T19:58:24.013Z,-4.55
2022-12-08T20:03:26.674Z,-4.74
2022-12-08T20:08:29.320Z,-4.70
2022-12-08T20:13:52.161Z,-4.63
2022-12-08T20:18:54.798Z,-4.84
2022-12-08T20:23:57.320Z,-4.90
2022-12-08T20:28:59.843Z,-5.05
2022-12-08T20:34:02.503Z,-4.92
2022-12-08T20:39:05.054Z,-4.94
2022-12-08T20:44:07.999Z,-4.98
2022-12-08T20:49:10.560Z,-5.00
2022-12-08T20:54:13.300Z,-5.20
2022-12-08T20:59:18.298Z,-5.33
2022-12-08T21:04:21.955Z,-5.45
2022-12-08T21:09:24.762Z,-5.58
2022-12-08T21:14:27.619Z,-5.56
2022-12-08T21:19:30.391Z,-5.61
2022-12-08T21:24:34.765Z,-5.51
2022-12-08T21:29:37.422Z,-5.61
2022-12-08T21:34:40.077Z,-5.71
2022-12-08T21:39:57.542Z,-5.91
2022-12-08T21:45:00.186Z,-5.98
2022-12-08T21:50:03.129Z,-6.06
2022-12-08T21:55:07.136Z,-6.17
2022-12-08T22:00:13.707Z,-6.12
2022-12-08T22:05:16.420Z,-6.25
2022-12-08T22:10:21.195Z,-6.09
2022-12-08T22:15:23.692Z,-6.14
2022-12-08T22:20:26.340Z,-6.21
2022-12-08T22:25:28.848Z,-6.18
2022-12-08T22:30:37.205Z,-6.31
2022-12-08T22:35:41.402Z,-6.38
2022-12-08T22:40:44.030Z,-6.37
2022-12-08T22:45:46.972Z,-6.42
2022-12-08T22:50:49.660Z,-6.36
2022-12-08T22:55:52.304Z,-6.28
2022-12-08T23:00:55.013Z,-6.37
2022-12-08T23:05:58.060Z,-6.35
2022-12-08T23:11:00.664Z,-6.26
2022-12-08T23:16:03.229Z,-6.25
2022-12-08T23:21:07.853Z,-6.32
2022-12-08T23:26:27.931Z,-6.46
2022-12-08T23:31:31.177Z,-6.39
2022-12-08T23:36:33.907Z,-6.47
2022-12-08T23:41:36.470Z,-6.58
2022-12-08T23:46:39.242Z,-6.65
2022-12-08T23:51:41.933Z,-6.69
2022-12-08T23:56:44.579Z,-6.82
